createdAt,value
2023-03-25T00:08:44.757Z,5.03
2023-03-25T00:18:48.212Z,6.68
2023-03-25T00:28:50.152Z,6.72
2023-03-25T00:38:52.247Z,5.47
2023-03-25T00:48:55.829Z,5.53
2023-03-25T00:58:58.855Z,6.38
2023-03-25T01:09:05.027Z,5.30
2023-03-25T01:19:07.097Z,6.20
2023-03-25T01:29:09.357Z,5.07
2023-03-25T01:39:11.308Z,5.93
2023-03-25T01:49:23.996Z,6.40
2023-03-25T01:59:28.861Z,5.35
2023-03-25T02:09:30.876Z,5.88
2023-03-25T02:20:14.058Z,6.13
2023-03-25T02:30:49.159Z,9.27
2023-03-25T02:41:04.824Z,7.10
2023-03-25T02:51:23.097Z,7.45
2023-03-25T03:01:27.175Z,7.65
2023-03-25T03:11:58.913Z,8.02
2023-03-25T03:22:42.922Z,8.00
2023-03-25T03:32:57.944Z,7.57
2023-03-25T03:43:09.038Z,9.55
2023-03-25T03:53:18.685Z,8.48
2023-03-25T04:03:34.923Z,8.43
2023-03-25T04:13:49.813Z,9.63
2023-03-25T04:23:52.126Z,9.75
2023-03-25T04:33:55.068Z,9.75
2023-03-25T04:43:58.598Z,7.97
2023-03-25T04:54:01.176Z,10.18
2023-03-25T05:04:05.696Z,10.50
2023-03-25T05:14:09.929Z,9.68
2023-03-25T05:24:13.715Z,9.60
2023-03-25T05:34:17.594Z,10.48
2023-03-25T05:44:19.818Z,11.10
2023-03-25T05:54:28.763Z,10.45
2023-03-25T06:04:34.167Z,12.30
2023-03-25T06:14:38.188Z,10.45
2023-03-25T06:24:41.578Z,10.50
2023-03-25T06:34:43.714Z,11.63
2023-03-25T06:44:49.225Z,10.15
2023-03-25T06:54:51.176Z,11.30
2023-03-25T07:04:53.240Z,10.85
2023-03-25T07:15:00.380Z,10.10
2023-03-25T07:35:05.960Z,10.63
2023-03-25T07:45:08.590Z,8.95
2023-03-25T07:55:10.758Z,7.47
2023-03-25T08:05:12.799Z,7.50
2023-03-25T08:15:14.806Z,10.27
2023-03-25T08:25:16.887Z,7.43
2023-03-25T08:35:21.648Z,7.30
2023-03-25T08:45:23.615Z,8.20
2023-03-25T08:55:26.186Z,7.97
2023-03-25T09:05:28.239Z,7.70
2023-03-25T09:15:30.974Z,4.60
2023-03-25T09:25:33.471Z,6.10
2023-03-25T09:35:41.762Z,5.88
2023-03-25T09:45:47.442Z,7.72
2023-03-25T09:55:58.286Z,6.68
2023-03-25T10:06:14.315Z,4.28
2023-03-25T10:16:36.142Z,4.75
2023-03-25T10:27:03.909Z,4.00
2023-03-25T10:37:14.805Z,3.95
2023-03-25T10:47:21.313Z,4.65
2023-03-25T10:57:32.682Z,4.07
2023-03-25T11:07:43.998Z,4.55
2023-03-25T11:17:48.075Z,5.18
2023-03-25T11:28:05.599Z,3.55
2023-03-25T11:38:17.091Z,4.88
2023-03-25T11:48:30.960Z,5.20
2023-03-25T11:58:39.586Z,3.20
2023-03-25T12:08:49.089Z,2.70
2023-03-25T12:19:23.317Z,3.97
2023-03-25T12:30:19.396Z,4.85
2023-03-25T12:40:51.597Z,6.60
2023-03-25T12:51:00.047Z,2.53
2023-03-25T13:01:23.902Z,5.43
2023-03-25T13:11:33.090Z,3.63
2023-03-25T13:21:46.782Z,3.53
2023-03-25T13:31:50.875Z,5.57
2023-03-25T13:42:01.253Z,6.30
2023-03-25T13:52:04.147Z,5.43
2023-03-25T14:02:32.564Z,5.60
2023-03-25T14:12:43.316Z,7.97
2023-03-25T14:22:45.494Z,3.60
2023-03-25T14:32:47.957Z,4.72
2023-03-25T14:43:00.627Z,3.13
2023-03-25T14:53:07.091Z,1.48
2023-03-25T15:03:19.845Z,3.08
2023-03-25T15:13:27.718Z,1.40
2023-03-25T15:23:48.306Z,3.75
2023-03-25T15:34:03.791Z,1.50
2023-03-25T15:44:36.934Z,4.55
2023-03-25T15:55:13.100Z,4.20
2023-03-25T16:05:17.786Z,8.63
2023-03-25T16:15:28.839Z,3.88
2023-03-25T16:25:38.445Z,3.17
2023-03-25T16:36:02.437Z,5.88
2023-03-25T16:46:09.738Z,4.63
2023-03-25T17:06:47.080Z,6.40
2023-03-25T17:16:53.048Z,6.90
2023-03-25T17:27:09.139Z,9.77
2023-03-25T17:37:19.803Z,8.77
2023-03-25T17:47:24.223Z,10.93
2023-03-25T17:57:27.017Z,6.70
2023-03-25T18:07:34.269Z,5.75
2023-03-25T18:17:45.151Z,7.28
2023-03-25T18:27:53.131Z,6.72
2023-03-25T18:37:58.240Z,5.50
2023-03-25T18:48:03.767Z,4.90
2023-03-25T18:58:06.619Z,2.97
2023-03-25T19:08:18.523Z,3.50
2023-03-25T19:18:26.202Z,3.05
2023-03-25T19:28:29.321Z,3.60
2023-03-25T19:38:41.920Z,4.57
2023-03-25T19:48:47.394Z,5.72
2023-03-25T19:58:50.289Z,4.93
2023-03-25T20:09:06.345Z,7.97
2023-03-25T20:19:21.996Z,13.85
2023-03-25T20:29:33.183Z,20.38
2023-03-25T20:39:46.273Z,13.23
2023-03-25T20:49:49.285Z,11.52
2023-03-25T20:59:58.852Z,15.75
2023-03-25T21:10:20.848Z,16.20
2023-03-25T21:20:30.402Z,14.35
2023-03-25T21:30:33.259Z,13.45
2023-03-25T21:40:40.015Z,15.52
2023-03-25T22:00:46.384Z,12.25
2023-03-25T22:11:05.683Z,13.10
2023-03-25T22:21:23.599Z,10.10
2023-03-25T22:31:31.284Z,8.98
2023-03-25T22:41:33.509Z,10.60
2023-03-25T22:51:35.635Z,11.35
2023-03-25T23:01:38.396Z,10.48
2023-03-25T23:11:44.546Z,8.13
2023-03-25T23:21:57.907Z,7.97
2023-03-25T23:32:06.146Z,7.15
2023-03-25T23:42:08.615Z,6.90
2023-03-25T23:52:13.814Z,6.75
